Startpagina
METAR-TAF:

METAR-TAF

Vliegvelden :

Vliegbasis Florennes

Florennes, België

breedte: 50-14N, lengte: 004-39E, hoogte: 279 m

Actueel weer

Dit bericht is 47 minuten geleden gemaakt, om 07:55 UTC
Wind 6 kt uit het zuidzuidoosten
Temperatuur 8°C
Vochtigheid 81%
Druk 1022 hPa
Zicht 10 km of meer
Gebroken wolken op 25000 ft

METAR: EBFS 180755Z 16006KT 9999 BKN250 08/05 Q1022 BLU BLU

Tijdstip: 10:42 (08:42 UTC)

Verwachting

Dit bericht is 3 uur en het 1 minuten geleden gemaakt, om 05:41 UTC
Verwachting geldig van 18 om 07 UTC tot 18 om 16 UTC
Wind 12 kt uit het zuiden
Zicht 10 km of meer
Verspreide wolken op 25000 ft

TAF: EBFS 180541Z 1807/1816 17012KT 9999 SCT250

Waarnemingen en weersverwachtingen van meer dan 4000 vliegvelden (METAR en TAF).

De beschikbare stations zijn de gele en rode punten op de kaart.

Ga met uw muis naar het station om de naam te zien.

Klik dan om waarnemingen en weersverwachtingen te zien.

kaart wijzigen: klik op de groene knoppen met een zwart kruis om in te zoomen, op de groene knop met een streepje om uit te zoomen of op de groene pijlen voor aangrenzende kaarten.


METAR-TAF: